createdAt,value
2018-12-06T00:01:14.878Z,15.37
2018-12-06T00:03:44.463Z,22.20
2018-12-06T00:08:46.983Z,17.60
2018-12-06T00:11:16.586Z,17.17
2018-12-06T00:13:47.225Z,18.93
2018-12-06T00:16:16.738Z,19.33
2018-12-06T00:18:56.044Z,18.02
2018-12-06T00:21:25.772Z,22.43
2018-12-06T00:23:55.424Z,16.80
2018-12-06T00:26:25.338Z,20.90
2018-12-06T00:28:54.908Z,17.43
2018-12-06T00:31:24.602Z,19.97
2018-12-06T00:33:54.332Z,33.17
2018-12-06T00:36:23.950Z,19.17
2018-12-06T00:38:53.541Z,21.83
2018-12-06T00:41:23.893Z,19.10
2018-12-06T00:43:53.648Z,15.67
2018-12-06T00:46:23.251Z,22.17
2018-12-06T00:48:52.940Z,19.87
2018-12-06T00:51:23.276Z,17.13
2018-12-06T00:53:52.766Z,15.17
2018-12-06T00:56:22.464Z,18.00
2018-12-06T00:58:52.119Z,18.30
2018-12-06T01:01:21.771Z,18.27
2018-12-06T01:03:51.454Z,16.27
2018-12-06T01:06:21.048Z,19.33
2018-12-06T01:08:50.705Z,14.00
2018-12-06T01:11:20.518Z,17.07
2018-12-06T01:16:25.965Z,17.97
2018-12-06T01:18:55.868Z,18.83
2018-12-06T01:21:25.715Z,14.43
2018-12-06T01:23:55.299Z,15.13
2018-12-06T01:26:25.024Z,20.57
2018-12-06T01:28:54.807Z,15.23
2018-12-06T01:31:24.736Z,17.87
2018-12-06T01:33:54.652Z,16.67
2018-12-06T01:38:57.654Z,14.03
2018-12-06T01:41:27.450Z,17.27
2018-12-06T01:46:31.682Z,17.03
2018-12-06T01:49:01.846Z,22.73
2018-12-06T01:54:04.637Z,21.87
2018-12-06T01:59:05.773Z,22.27
2018-12-06T02:01:35.467Z,16.80
2018-12-06T02:04:05.223Z,17.13
2018-12-06T02:06:34.820Z,23.12
2018-12-06T02:09:06.809Z,21.57
2018-12-06T02:14:09.735Z,21.23
2018-12-06T02:16:39.925Z,17.17
2018-12-06T02:21:41.264Z,11.77
2018-12-06T02:24:11.884Z,15.73
2018-12-06T02:26:41.714Z,15.30
2018-12-06T02:29:11.316Z,22.10
2018-12-06T02:31:40.839Z,20.23
2018-12-06T02:34:10.633Z,25.17
2018-12-06T02:36:40.495Z,15.63
2018-12-06T02:39:10.895Z,22.13
2018-12-06T02:41:40.459Z,17.57
2018-12-06T02:44:10.264Z,20.75
2018-12-06T02:46:40.033Z,12.53
2018-12-06T02:49:09.710Z,17.10
2018-12-06T02:51:39.234Z,23.13
2018-12-06T02:56:42.255Z,23.65
2018-12-06T02:59:11.938Z,18.30
2018-12-06T03:01:42.175Z,18.33
2018-12-06T03:04:13.117Z,20.30
2018-12-06T03:09:15.930Z,17.13
2018-12-06T03:14:13.973Z,15.20
2018-12-06T03:16:43.260Z,14.93
2018-12-06T03:19:12.529Z,20.47
2018-12-06T03:24:17.192Z,22.80
2018-12-06T03:26:46.452Z,16.60
2018-12-06T03:31:48.395Z,15.90
2018-12-06T03:36:47.705Z,17.27
2018-12-06T03:39:18.682Z,13.90
2018-12-06T03:41:48.408Z,16.30
2018-12-06T03:44:18.299Z,14.93
2018-12-06T03:46:48.043Z,19.10
2018-12-06T03:51:54.630Z,17.80
2018-12-06T03:54:24.477Z,15.90
2018-12-06T03:56:54.010Z,18.53
2018-12-06T03:59:23.539Z,17.10
2018-12-06T04:01:53.109Z,14.57
2018-12-06T04:04:22.822Z,21.63
2018-12-06T04:06:52.661Z,12.07
2018-12-06T04:09:22.206Z,11.00
2018-12-06T04:14:24.695Z,11.60
2018-12-06T04:16:54.682Z,12.20
2018-12-06T04:19:24.393Z,13.90
2018-12-06T04:21:55.351Z,15.77
2018-12-06T04:27:06.473Z,16.63
2018-12-06T04:29:36.214Z,15.20
2018-12-06T04:32:05.802Z,20.00
2018-12-06T04:37:09.156Z,18.27
2018-12-06T04:39:38.952Z,14.50
2018-12-06T04:42:08.782Z,18.77
2018-12-06T04:44:38.262Z,15.20
2018-12-06T04:47:07.861Z,19.07
2018-12-06T04:52:12.234Z,15.00
2018-12-06T04:54:42.126Z,16.37
2018-12-06T04:57:11.758Z,18.60
2018-12-06T05:02:12.992Z,23.43
2018-12-06T05:04:42.320Z,12.93
2018-12-06T05:07:11.805Z,9.87
2018-12-06T05:12:15.326Z,15.87
2018-12-06T05:14:45.021Z,20.80
2018-12-06T05:17:14.750Z,19.60
2018-12-06T05:19:44.620Z,16.83
2018-12-06T05:24:47.885Z,12.00
2018-12-06T05:27:17.527Z,19.00
2018-12-06T05:32:19.882Z,15.40
2018-12-06T05:34:49.600Z,22.03
2018-12-06T05:37:19.613Z,22.27
2018-12-06T05:39:49.237Z,20.93
2018-12-06T05:42:19.073Z,16.53
2018-12-06T05:44:48.563Z,19.73
2018-12-06T05:47:18.430Z,22.77
2018-12-06T05:49:48.216Z,20.07
2018-12-06T05:52:17.954Z,13.70
2018-12-06T05:54:47.711Z,15.47
2018-12-06T05:57:17.500Z,19.70
2018-12-06T06:02:20.173Z,10.93
2018-12-06T06:07:18.193Z,15.60
2018-12-06T06:09:47.785Z,14.90
2018-12-06T06:12:18.087Z,12.10
2018-12-06T06:14:47.868Z,11.60
2018-12-06T06:17:17.659Z,13.80
2018-12-06T06:19:47.306Z,16.23
2018-12-06T06:22:17.033Z,14.70
2018-12-06T06:27:21.250Z,12.07
2018-12-06T06:32:20.145Z,11.90
2018-12-06T06:34:49.897Z,15.50
2018-12-06T06:37:19.597Z,10.80
2018-12-06T06:42:21.501Z,20.10
2018-12-06T06:44:51.105Z,11.03
2018-12-06T06:49:54.527Z,12.87
2018-12-06T06:52:24.169Z,12.10
2018-12-06T06:57:26.663Z,14.47
2018-12-06T06:59:56.729Z,15.97
2018-12-06T07:02:26.384Z,13.20
2018-12-06T07:04:56.051Z,15.77
2018-12-06T07:07:25.765Z,22.77
2018-12-06T07:09:55.561Z,17.47
2018-12-06T07:12:25.304Z,11.00
2018-12-06T07:14:54.888Z,18.30
2018-12-06T07:19:57.212Z,18.03
2018-12-06T07:22:26.856Z,15.57
2018-12-06T07:27:32.962Z,17.13
2018-12-06T07:32:33.500Z,17.93
2018-12-06T07:35:03.413Z,14.80
2018-12-06T07:37:33.083Z,15.63
2018-12-06T07:42:35.831Z,17.03
2018-12-06T07:45:05.924Z,18.97
2018-12-06T07:50:10.833Z,18.37
2018-12-06T07:52:43.615Z,19.97
2018-12-06T07:55:13.110Z,12.67
2018-12-06T07:57:42.905Z,16.50
2018-12-06T08:00:12.824Z,17.93
2018-12-06T08:02:42.549Z,13.13
2018-12-06T08:05:12.474Z,20.07
2018-12-06T08:07:42.203Z,14.67
2018-12-06T08:10:11.725Z,16.13
2018-12-06T08:12:41.321Z,22.17
2018-12-06T08:17:46.123Z,18.40
2018-12-06T08:20:15.957Z,19.13
2018-12-06T08:22:45.706Z,16.77
2018-12-06T08:25:16.400Z,17.60
2018-12-06T08:27:46.399Z,21.43
2018-12-06T08:30:16.033Z,17.77
2018-12-06T08:32:45.612Z,17.20
2018-12-06T08:35:15.522Z,16.93
2018-12-06T08:40:21.448Z,17.37
2018-12-06T08:42:51.320Z,18.27
2018-12-06T08:45:21.449Z,17.73
2018-12-06T08:47:51.148Z,15.80
2018-12-06T08:50:21.285Z,17.33
2018-12-06T08:52:51.136Z,16.53
2018-12-06T08:55:20.801Z,18.17
2018-12-06T08:57:50.472Z,13.30
2018-12-06T09:00:20.259Z,22.20
2018-12-06T09:02:51.197Z,15.03
2018-12-06T09:05:21.385Z,21.27
2018-12-06T09:07:51.169Z,12.17
2018-12-06T09:10:20.922Z,13.58
2018-12-06T09:12:50.734Z,16.63
2018-12-06T09:15:20.298Z,17.00
2018-12-06T09:20:25.285Z,19.27
2018-12-06T09:22:54.664Z,16.90
2018-12-06T09:25:24.609Z,17.73
2018-12-06T09:27:54.091Z,16.60
2018-12-06T09:32:59.783Z,16.93
2018-12-06T09:35:29.384Z,17.70
2018-12-06T09:40:31.716Z,13.67
2018-12-06T09:43:01.411Z,15.90
2018-12-06T09:45:31.178Z,17.30
2018-12-06T09:48:00.573Z,12.30
2018-12-06T09:50:29.905Z,19.80
2018-12-06T09:55:32.088Z,18.43
2018-12-06T09:58:02.850Z,15.80
2018-12-06T10:00:32.198Z,19.35
2018-12-06T10:03:01.651Z,16.50
2018-12-06T10:05:30.860Z,15.50
2018-12-06T10:08:00.155Z,18.07
2018-12-06T10:10:29.429Z,19.23
2018-12-06T10:12:58.894Z,17.53
2018-12-06T10:15:28.320Z,16.03
2018-12-06T10:17:57.638Z,18.03
2018-12-06T10:20:27.045Z,15.57
2018-12-06T10:22:56.344Z,16.17
2018-12-06T10:25:25.577Z,14.43
2018-12-06T10:27:54.820Z,17.37
2018-12-06T10:30:24.162Z,18.73
2018-12-06T10:32:53.550Z,23.07
2018-12-06T10:35:23.492Z,17.43
2018-12-06T10:37:53.493Z,12.27
2018-12-06T10:40:23.944Z,18.63
2018-12-06T10:42:53.236Z,16.50
2018-12-06T10:45:23.317Z,15.13
2018-12-06T10:47:52.841Z,17.27
2018-12-06T10:50:22.119Z,15.20
2018-12-06T10:52:51.455Z,17.73
2018-12-06T10:55:20.731Z,16.15
2018-12-06T10:57:50.100Z,14.07
2018-12-06T11:00:24.539Z,16.70
2018-12-06T11:02:58.089Z,23.57
2018-12-06T11:05:27.362Z,16.33
2018-12-06T11:07:56.895Z,17.37
2018-12-06T11:10:26.174Z,23.18
2018-12-06T11:12:55.507Z,27.33
2018-12-06T11:15:24.787Z,18.20
2018-12-06T11:17:54.055Z,14.30
2018-12-06T11:20:23.452Z,15.57
2018-12-06T11:22:53.174Z,15.37
2018-12-06T11:25:22.552Z,22.23
2018-12-06T11:27:52.117Z,14.93
2018-12-06T11:30:21.500Z,20.30
2018-12-06T11:32:50.817Z,15.50
2018-12-06T11:35:20.055Z,20.37
2018-12-06T11:37:49.281Z,17.10
2018-12-06T11:40:18.619Z,17.77
2018-12-06T11:42:47.920Z,12.00
2018-12-06T11:45:17.411Z,15.30
2018-12-06T11:47:46.991Z,20.93
2018-12-06T11:50:16.586Z,22.80
2018-12-06T11:52:46.093Z,18.03
2018-12-06T11:55:15.625Z,13.97
2018-12-06T11:57:45.299Z,17.27
2018-12-06T12:00:15.077Z,18.48
2018-12-06T12:02:44.543Z,22.43
2018-12-06T12:05:15.249Z,16.57
2018-12-06T12:07:44.786Z,13.97
2018-12-06T12:10:14.185Z,14.97
2018-12-06T12:12:43.669Z,12.73
2018-12-06T12:15:15.296Z,15.20
2018-12-06T12:17:44.830Z,20.07
2018-12-06T12:20:14.345Z,17.60
2018-12-06T12:22:43.976Z,13.23
2018-12-06T12:25:13.351Z,23.13
2018-12-06T12:27:42.851Z,15.33
2018-12-06T12:30:12.905Z,17.83
2018-12-06T12:32:42.648Z,15.10
2018-12-06T12:35:12.561Z,20.20
2018-12-06T12:37:42.259Z,15.57
2018-12-06T12:40:12.589Z,14.73
2018-12-06T12:42:43.001Z,19.27
2018-12-06T12:45:12.789Z,19.20
2018-12-06T12:47:42.281Z,16.20
2018-12-06T12:50:12.121Z,21.45
2018-12-06T12:52:41.728Z,22.27
2018-12-06T12:55:11.372Z,21.47
2018-12-06T12:57:41.234Z,18.07
2018-12-06T13:00:10.764Z,22.87
2018-12-06T13:02:40.770Z,20.87
2018-12-06T13:05:10.542Z,15.80
2018-12-06T13:07:40.109Z,18.10
2018-12-06T13:10:09.656Z,19.23
2018-12-06T13:12:39.427Z,15.77
2018-12-06T13:15:09.123Z,17.07
2018-12-06T13:17:38.713Z,15.20
2018-12-06T13:20:15.116Z,20.37
2018-12-06T13:22:44.807Z,16.77
2018-12-06T13:25:14.529Z,17.33
2018-12-06T13:27:43.847Z,20.57
2018-12-06T13:30:13.850Z,19.93
2018-12-06T13:32:43.925Z,18.37
2018-12-06T13:35:13.419Z,22.50
2018-12-06T13:37:42.670Z,19.73
2018-12-06T13:40:11.943Z,29.18
2018-12-06T13:42:41.220Z,29.33
2018-12-06T13:45:10.959Z,22.23
2018-12-06T13:47:40.410Z,22.77
2018-12-06T13:50:09.805Z,19.63
2018-12-06T13:52:39.865Z,16.17
2018-12-06T13:55:09.280Z,20.87
2018-12-06T13:57:39.113Z,18.27
2018-12-06T14:00:08.617Z,26.20
2018-12-06T14:02:37.991Z,18.93
2018-12-06T14:05:07.561Z,21.10
2018-12-06T14:07:36.894Z,18.73
2018-12-06T14:10:06.313Z,20.97
2018-12-06T14:12:35.630Z,19.97
2018-12-06T14:15:05.724Z,22.70
2018-12-06T14:17:35.515Z,21.03
2018-12-06T14:20:06.087Z,23.47
2018-12-06T14:22:35.614Z,20.30
2018-12-06T14:25:05.186Z,26.67
2018-12-06T14:27:34.552Z,23.80
2018-12-06T14:30:04.462Z,21.47
2018-12-06T14:32:33.730Z,20.30
2018-12-06T14:35:03.395Z,24.80
2018-12-06T14:37:32.960Z,24.33
2018-12-06T14:40:02.865Z,23.87
2018-12-06T14:42:32.776Z,21.07
2018-12-06T14:45:02.408Z,20.23
2018-12-06T14:47:32.093Z,21.73
2018-12-06T14:50:01.716Z,18.13
2018-12-06T14:52:31.673Z,20.70
2018-12-06T14:55:01.657Z,23.77
2018-12-06T14:57:31.074Z,20.27
2018-12-06T15:00:00.890Z,26.33
2018-12-06T15:02:30.852Z,22.07
2018-12-06T15:05:00.699Z,22.97
2018-12-06T15:07:30.241Z,31.13
2018-12-06T15:10:00.079Z,19.57
2018-12-06T15:12:29.623Z,23.40
2018-12-06T15:14:59.549Z,28.50
2018-12-06T15:17:29.352Z,25.93
2018-12-06T15:19:59.051Z,19.70
2018-12-06T15:22:28.518Z,19.60
2018-12-06T15:24:58.303Z,31.57
2018-12-06T15:27:29.008Z,27.90
2018-12-06T15:29:58.630Z,28.73
2018-12-06T15:32:28.521Z,25.57
2018-12-06T15:34:58.214Z,28.73
2018-12-06T15:37:27.878Z,23.97
2018-12-06T15:39:57.606Z,27.67
2018-12-06T15:42:27.495Z,26.13
2018-12-06T15:44:57.090Z,26.60
2018-12-06T15:47:26.686Z,19.90
2018-12-06T15:49:56.548Z,26.17
2018-12-06T15:52:26.040Z,26.47
2018-12-06T15:54:55.941Z,29.77
2018-12-06T15:57:26.165Z,25.70
2018-12-06T15:59:55.962Z,25.17
2018-12-06T16:02:25.557Z,23.83
2018-12-06T16:04:55.151Z,20.57
2018-12-06T16:07:25.364Z,24.23
2018-12-06T16:09:55.172Z,25.20
2018-12-06T16:12:24.803Z,27.57
2018-12-06T16:14:54.344Z,26.80
2018-12-06T16:17:24.271Z,29.07
2018-12-06T16:19:53.804Z,27.93
2018-12-06T16:22:23.469Z,26.27
2018-12-06T16:24:53.197Z,21.83
2018-12-06T16:27:22.803Z,26.47
2018-12-06T16:29:52.381Z,22.63
2018-12-06T16:32:22.015Z,26.47
2018-12-06T16:34:51.733Z,22.40
2018-12-06T16:37:21.407Z,27.60
2018-12-06T16:39:50.733Z,25.87
2018-12-06T16:42:20.149Z,26.00
2018-12-06T16:44:49.612Z,24.73
2018-12-06T16:47:19.354Z,26.37
2018-12-06T16:49:48.665Z,30.40
2018-12-06T16:52:18.216Z,23.30
2018-12-06T16:54:48.051Z,29.63
2018-12-06T16:57:18.028Z,26.90
2018-12-06T16:59:47.911Z,32.40
2018-12-06T17:02:17.682Z,25.90
2018-12-06T17:04:48.081Z,28.93
2018-12-06T17:07:17.674Z,31.80
2018-12-06T17:09:47.410Z,23.40
2018-12-06T17:12:17.042Z,30.03
2018-12-06T17:14:46.370Z,34.00
2018-12-06T17:17:15.781Z,30.03
2018-12-06T17:19:45.029Z,30.80
2018-12-06T17:22:14.386Z,32.77
2018-12-06T17:24:43.785Z,35.90
2018-12-06T17:27:13.683Z,30.13
2018-12-06T17:29:43.616Z,33.57
2018-12-06T17:32:13.133Z,38.80
2018-12-06T17:34:42.521Z,90.50
2018-12-06T17:37:11.906Z,208.03
2018-12-06T17:39:43.819Z,77.53
2018-12-06T17:42:13.679Z,30.30
2018-12-06T17:44:43.385Z,39.15
2018-12-06T17:47:13.327Z,28.03
2018-12-06T17:49:43.550Z,28.43
2018-12-06T17:52:13.675Z,32.90
2018-12-06T17:54:43.898Z,30.97
2018-12-06T17:57:13.245Z,30.13
2018-12-06T17:59:42.875Z,23.90
2018-12-06T18:02:12.744Z,31.30
2018-12-06T18:04:42.325Z,31.00
2018-12-06T18:07:11.655Z,24.87
2018-12-06T18:09:41.243Z,31.77
2018-12-06T18:12:10.549Z,23.30
2018-12-06T18:14:39.906Z,29.10
2018-12-06T18:17:09.552Z,27.93
2018-12-06T18:22:14.852Z,28.43
2018-12-06T18:24:44.292Z,33.40
2018-12-06T18:27:13.829Z,29.77
2018-12-06T18:29:43.459Z,27.63
2018-12-06T18:32:13.419Z,32.73
2018-12-06T18:34:43.334Z,26.63
2018-12-06T18:37:12.903Z,26.57
2018-12-06T18:39:42.372Z,34.60
2018-12-06T18:42:11.774Z,26.30
2018-12-06T18:44:41.044Z,27.90
2018-12-06T18:47:10.400Z,28.47
2018-12-06T18:49:39.877Z,29.63
2018-12-06T18:52:09.453Z,25.10
2018-12-06T18:54:39.445Z,72.40
2018-12-06T18:57:08.735Z,105.83
2018-12-06T18:59:38.044Z,30.30
2018-12-06T19:02:07.411Z,37.07
2018-12-06T19:04:37.040Z,30.47
2018-12-06T19:09:38.672Z,35.53
2018-12-06T19:12:08.280Z,34.78
2018-12-06T19:14:37.926Z,33.83
2018-12-06T19:17:07.348Z,24.33
2018-12-06T19:19:36.687Z,29.83
2018-12-06T19:22:06.337Z,29.50
2018-12-06T19:24:35.704Z,56.20
2018-12-06T19:27:05.041Z,78.70
2018-12-06T19:29:34.636Z,48.57
2018-12-06T19:32:04.510Z,31.00
2018-12-06T19:34:34.501Z,37.40
2018-12-06T19:37:04.506Z,30.33
2018-12-06T19:39:33.842Z,38.67
2018-12-06T19:42:03.291Z,30.97
2018-12-06T19:44:32.866Z,41.03
2018-12-06T19:47:02.710Z,26.23
2018-12-06T19:49:32.391Z,34.03
2018-12-06T19:52:02.162Z,34.00
2018-12-06T19:54:31.495Z,25.60
2018-12-06T19:57:01.666Z,31.67
2018-12-06T19:59:31.458Z,142.30
2018-12-06T20:02:00.985Z,145.10
2018-12-06T20:04:30.996Z,51.43
2018-12-06T20:07:01.355Z,34.33
2018-12-06T20:09:31.235Z,35.88
2018-12-06T20:12:01.297Z,38.17
2018-12-06T20:14:30.890Z,43.20
2018-12-06T20:17:00.673Z,34.00
2018-12-06T20:19:31.148Z,37.00
2018-12-06T20:22:02.066Z,39.97
2018-12-06T20:24:31.747Z,42.70
2018-12-06T20:27:01.216Z,31.47
2018-12-06T20:29:30.963Z,38.60
2018-12-06T20:32:00.368Z,36.10
2018-12-06T20:34:29.669Z,42.03
2018-12-06T20:36:58.943Z,70.43
2018-12-06T20:39:28.497Z,60.57
2018-12-06T20:41:58.420Z,51.73
2018-12-06T20:44:28.472Z,36.27
2018-12-06T20:46:58.257Z,38.77
2018-12-06T20:49:27.926Z,38.95
2018-12-06T20:51:57.636Z,43.13
2018-12-06T20:54:27.042Z,35.73
2018-12-06T20:56:58.037Z,42.13
2018-12-06T20:59:27.389Z,39.37
2018-12-06T21:01:56.720Z,40.30
2018-12-06T21:04:27.153Z,39.53
2018-12-06T21:06:56.548Z,41.10
2018-12-06T21:09:25.907Z,39.03
2018-12-06T21:11:55.272Z,50.67
2018-12-06T21:14:24.621Z,49.53
2018-12-06T21:16:54.252Z,65.00
2018-12-06T21:19:24.085Z,39.03
2018-12-06T21:21:53.415Z,32.80
2018-12-06T21:24:22.696Z,27.60
2018-12-06T21:26:52.052Z,28.57
2018-12-06T21:29:21.389Z,33.13
2018-12-06T21:31:50.654Z,45.63
2018-12-06T21:34:20.228Z,39.00
2018-12-06T21:36:50.569Z,40.37
2018-12-06T21:39:20.083Z,52.27
2018-12-06T21:41:50.109Z,51.37
2018-12-06T21:44:19.801Z,43.03
2018-12-06T21:46:49.514Z,35.27
2018-12-06T21:49:19.477Z,41.70
2018-12-06T21:51:49.852Z,32.20
2018-12-06T21:54:19.491Z,38.07
2018-12-06T21:56:49.398Z,45.57
2018-12-06T21:59:18.988Z,40.87
2018-12-06T22:01:48.748Z,32.80
2018-12-06T22:04:18.455Z,32.70
2018-12-06T22:06:48.217Z,37.27
2018-12-06T22:09:18.105Z,34.97
2018-12-06T22:11:47.536Z,38.07
2018-12-06T22:14:17.760Z,37.17
2018-12-06T22:16:47.629Z,35.93
2018-12-06T22:19:17.389Z,36.08
2018-12-06T22:21:46.677Z,35.80
2018-12-06T22:24:15.950Z,38.17
2018-12-06T22:26:45.310Z,36.97
2018-12-06T22:29:14.555Z,36.67
2018-12-06T22:31:43.844Z,40.43
2018-12-06T22:34:13.128Z,44.33
2018-12-06T22:36:42.789Z,46.20
2018-12-06T22:39:12.516Z,36.07
2018-12-06T22:41:41.950Z,40.67
2018-12-06T22:44:11.233Z,35.57
2018-12-06T22:46:40.497Z,35.73
2018-12-06T22:49:10.109Z,46.10
2018-12-06T22:51:39.714Z,34.13
2018-12-06T22:54:09.286Z,37.00
2018-12-06T22:56:39.497Z,36.93
2018-12-06T22:59:08.851Z,38.07
2018-12-06T23:01:40.274Z,41.13
2018-12-06T23:04:09.873Z,43.10
2018-12-06T23:06:40.008Z,35.03
2018-12-06T23:09:10.966Z,46.48
2018-12-06T23:11:40.575Z,41.47
2018-12-06T23:14:10.478Z,43.53
2018-12-06T23:16:40.400Z,44.17
2018-12-06T23:19:10.155Z,41.60
2018-12-06T23:21:40.579Z,43.87
2018-12-06T23:24:10.248Z,39.90
2018-12-06T23:26:40.066Z,51.35
2018-12-06T23:29:09.732Z,46.70
2018-12-06T23:31:39.041Z,42.27
2018-12-06T23:34:08.367Z,48.20
2018-12-06T23:36:37.658Z,50.50
2018-12-06T23:39:08.247Z,41.67
2018-12-06T23:41:37.541Z,40.33
2018-12-06T23:44:06.794Z,46.17
2018-12-06T23:46:36.025Z,49.53
2018-12-06T23:49:05.353Z,49.53
2018-12-06T23:51:39.172Z,42.80
2018-12-06T23:54:08.449Z,51.03
2018-12-06T23:56:38.878Z,39.53
2018-12-06T23:59:08.232Z,34.33
